Startpagina
METAR-TAF:

METAR-TAF

Vliegvelden :

Luxemburg, Luxemburg

Aéroport de Luxembourg

breedte: 49-37N, lengte: 006-13E, hoogte: 376 m

Actueel weer

Dit bericht is 28 minuten geleden gemaakt, om 18:20 UTC
Wind 11 kt uit het westen
Temperatuur 17°C
Vochtigheid 94%
Druk 1009 hPa
Zicht 10 km of meer
Weinig wolken op 1200 ft, Stapelwolken.

METAR: ELLX 271820Z 27011KT 9999 FEW012TCU 17/16 Q1009 NOSIG

Tijdstip: 20:48 (18:48 UTC)

Verwachting

Dit bericht is 1 uur en het 48 minuten geleden gemaakt, om 17:00 UTC
Verwachting geldig van 27 om 18 UTC tot 28 om 24 UTC
Wind 7 kt uit het zuidwesten
Zicht 10 km of meer
Gebroken wolken op 2000 ft
Tijdelijke
van 28 om 00 UTC tot 28 om 07 UTC
Zicht: 5000 m
Gebroken wolken op 600 ft
nevel
Tijdelijke
van 28 om 09 UTC tot 28 om 18 UTC
Wind 13 kt uit het westzuidwesten
Verspreide wolken op 3000 ft

TAF: ELLX 271700Z 2718/2824 22007KT 9999 BKN020 TEMPO 2800/2807 5000 BR BKN006 TEMPO 2809/2818 24013KT SCT030

Waarnemingen en weersverwachtingen van meer dan 4000 vliegvelden (METAR en TAF).

De beschikbare stations zijn de gele en rode punten op de kaart.

Ga met uw muis naar het station om de naam te zien.

Klik dan om waarnemingen en weersverwachtingen te zien.

kaart wijzigen: klik op de groene knoppen met een zwart kruis om in te zoomen, op de groene knop met een streepje om uit te zoomen of op de groene pijlen voor aangrenzende kaarten.


METAR-TAF: